sensor_id;sensor_type;location;lat;lon;timestamp;P1;durP1;ratioP1;P2;durP2;ratioP2
77775;SDS011;66965;43.328;6.668;2023-09-12T00:00:03;8.47;;;5.67;;
77775;SDS011;66965;43.328;6.668;2023-09-12T00:02:30;8.10;;;5.93;;
77775;SDS011;66965;43.328;6.668;2023-09-12T00:04:55;8.85;;;6.40;;
77775;SDS011;66965;43.328;6.668;2023-09-12T00:07:20;10.57;;;7.00;;
77775;SDS011;66965;43.328;6.668;2023-09-12T00:09:46;7.40;;;5.40;;
77775;SDS011;66965;43.328;6.668;2023-09-12T00:12:13;6.33;;;5.33;;
77775;SDS011;66965;43.328;6.668;2023-09-12T00:14:39;9.32;;;6.35;;
77775;SDS011;66965;43.328;6.668;2023-09-12T00:17:04;9.13;;;5.83;;
77775;SDS011;66965;43.328;6.668;2023-09-12T00:19:30;8.37;;;5.60;;
77775;SDS011;66965;43.328;6.668;2023-09-12T00:21:55;10.32;;;7.60;;
77775;SDS011;66965;43.328;6.668;2023-09-12T00:24:20;7.17;;;5.23;;
77775;SDS011;66965;43.328;6.668;2023-09-12T00:26:46;11.80;;;5.37;;
77775;SDS011;66965;43.328;6.668;2023-09-12T00:29:11;6.83;;;5.23;;
77775;SDS011;66965;43.328;6.668;2023-09-12T00:31:36;7.50;;;4.50;;
77775;SDS011;66965;43.328;6.668;2023-09-12T00:34:01;9.00;;;5.20;;
77775;SDS011;66965;43.328;6.668;2023-09-12T00:36:27;7.30;;;5.00;;
77775;SDS011;66965;43.328;6.668;2023-09-12T00:38:52;6.10;;;4.67;;
77775;SDS011;66965;43.328;6.668;2023-09-12T00:41:17;7.90;;;4.83;;
77775;SDS011;66965;43.328;6.668;2023-09-12T00:43:42;7.23;;;5.40;;
77775;SDS011;66965;43.328;6.668;2023-09-12T00:46:08;6.83;;;5.33;;
77775;SDS011;66965;43.328;6.668;2023-09-12T00:48:33;7.90;;;5.37;;
77775;SDS011;66965;43.328;6.668;2023-09-12T00:50:59;8.77;;;5.65;;
77775;SDS011;66965;43.328;6.668;2023-09-12T00:53:24;6.45;;;4.75;;
77775;SDS011;66965;43.328;6.668;2023-09-12T00:55:51;8.00;;;5.13;;
77775;SDS011;66965;43.328;6.668;2023-09-12T00:58:19;7.90;;;5.28;;
77775;SDS011;66965;43.328;6.668;2023-09-12T01:00:44;6.85;;;4.95;;
77775;SDS011;66965;43.328;6.668;2023-09-12T01:03:10;7.18;;;5.40;;
77775;SDS011;66965;43.328;6.668;2023-09-12T01:05:35;6.28;;;4.35;;
77775;SDS011;66965;43.328;6.668;2023-09-12T01:08:01;7.07;;;5.10;;
77775;SDS011;66965;43.328;6.668;2023-09-12T01:10:26;8.95;;;5.55;;
77775;SDS011;66965;43.328;6.668;2023-09-12T01:12:52;7.38;;;4.88;;
77775;SDS011;66965;43.328;6.668;2023-09-12T01:15:17;7.13;;;5.38;;
77775;SDS011;66965;43.328;6.668;2023-09-12T01:17:43;9.48;;;5.55;;
77775;SDS011;66965;43.328;6.668;2023-09-12T01:20:10;7.63;;;5.57;;
77775;SDS011;66965;43.328;6.668;2023-09-12T01:27:48;9.80;;;5.55;;
77775;SDS011;66965;43.328;6.668;2023-09-12T01:30:16;8.52;;;5.68;;
77775;SDS011;66965;43.328;6.668;2023-09-12T01:32:42;6.90;;;5.25;;
77775;SDS011;66965;43.328;6.668;2023-09-12T01:35:07;8.90;;;5.73;;
77775;SDS011;66965;43.328;6.668;2023-09-12T01:37:33;9.88;;;5.75;;
77775;SDS011;66965;43.328;6.668;2023-09-12T01:39:59;9.43;;;5.47;;
77775;SDS011;66965;43.328;6.668;2023-09-12T01:42:24;7.97;;;5.20;;
77775;SDS011;66965;43.328;6.668;2023-09-12T01:44:54;9.98;;;5.93;;
77775;SDS011;66965;43.328;6.668;2023-09-12T01:47:20;8.60;;;6.28;;
77775;SDS011;66965;43.328;6.668;2023-09-12T01:49:46;7.60;;;5.72;;
77775;SDS011;66965;43.328;6.668;2023-09-12T01:52:13;6.95;;;5.65;;
77775;SDS011;66965;43.328;6.668;2023-09-12T01:54:38;7.70;;;5.97;;
77775;SDS011;66965;43.328;6.668;2023-09-12T01:57:05;6.93;;;5.18;;
77775;SDS011;66965;43.328;6.668;2023-09-12T01:59:31;16.17;;;5.82;;
77775;SDS011;66965;43.328;6.668;2023-09-12T02:01:56;10.10;;;5.87;;
77775;SDS011;66965;43.328;6.668;2023-09-12T02:04:22;7.93;;;5.67;;
77775;SDS011;66965;43.328;6.668;2023-09-12T02:06:47;10.50;;;5.60;;
77775;SDS011;66965;43.328;6.668;2023-09-12T02:09:12;11.90;;;6.27;;
77775;SDS011;66965;43.328;6.668;2023-09-12T02:11:37;7.07;;;5.80;;
77775;SDS011;66965;43.328;6.668;2023-09-12T02:14:03;8.10;;;5.67;;
77775;SDS011;66965;43.328;6.668;2023-09-12T02:16:29;8.53;;;5.37;;
77775;SDS011;66965;43.328;6.668;2023-09-12T02:18:54;7.65;;;5.82;;
77775;SDS011;66965;43.328;6.668;2023-09-12T02:21:19;6.47;;;4.90;;
77775;SDS011;66965;43.328;6.668;2023-09-12T02:23:44;7.37;;;5.27;;
77775;SDS011;66965;43.328;6.668;2023-09-12T02:26:10;8.80;;;5.53;;
77775;SDS011;66965;43.328;6.668;2023-09-12T02:28:35;9.20;;;5.40;;
77775;SDS011;66965;43.328;6.668;2023-09-12T02:31:00;8.23;;;5.63;;
77775;SDS011;66965;43.328;6.668;2023-09-12T02:33:25;8.83;;;5.53;;
77775;SDS011;66965;43.328;6.668;2023-09-12T02:35:51;7.20;;;5.50;;
77775;SDS011;66965;43.328;6.668;2023-09-12T02:38:17;8.70;;;5.43;;
77775;SDS011;66965;43.328;6.668;2023-09-12T02:40:42;9.05;;;5.53;;
77775;SDS011;66965;43.328;6.668;2023-09-12T02:43:07;7.83;;;5.27;;
77775;SDS011;66965;43.328;6.668;2023-09-12T02:45:33;7.70;;;5.67;;
77775;SDS011;66965;43.328;6.668;2023-09-12T02:47:58;7.07;;;5.00;;
77775;SDS011;66965;43.328;6.668;2023-09-12T02:50:23;6.70;;;5.47;;
77775;SDS011;66965;43.328;6.668;2023-09-12T02:52:48;7.40;;;5.50;;
77775;SDS011;66965;43.328;6.668;2023-09-12T02:55:14;7.27;;;5.33;;
77775;SDS011;66965;43.328;6.668;2023-09-12T02:57:39;7.00;;;4.83;;
77775;SDS011;66965;43.328;6.668;2023-09-12T03:00:05;6.60;;;5.22;;
77775;SDS011;66965;43.328;6.668;2023-09-12T03:02:33;6.40;;;4.60;;
77775;SDS011;66965;43.328;6.668;2023-09-12T03:04:58;6.93;;;5.20;;
77775;SDS011;66965;43.328;6.668;2023-09-12T03:07:24;8.40;;;5.10;;
77775;SDS011;66965;43.328;6.668;2023-09-12T03:09:49;7.13;;;5.07;;
77775;SDS011;66965;43.328;6.668;2023-09-12T03:12:17;7.07;;;5.43;;
77775;SDS011;66965;43.328;6.668;2023-09-12T03:14:42;8.60;;;5.57;;
77775;SDS011;66965;43.328;6.668;2023-09-12T03:17:07;7.50;;;5.67;;
77775;SDS011;66965;43.328;6.668;2023-09-12T03:19:33;7.80;;;5.03;;
77775;SDS011;66965;43.328;6.668;2023-09-12T03:21:58;6.63;;;5.20;;
77775;SDS011;66965;43.328;6.668;2023-09-12T03:24:23;8.10;;;5.67;;
77775;SDS011;66965;43.328;6.668;2023-09-12T03:26:50;8.07;;;6.03;;
77775;SDS011;66965;43.328;6.668;2023-09-12T03:29:15;8.52;;;7.35;;
77775;SDS011;66965;43.328;6.668;2023-09-12T03:31:40;9.57;;;6.73;;
77775;SDS011;66965;43.328;6.668;2023-09-12T03:34:06;10.50;;;5.70;;
77775;SDS011;66965;43.328;6.668;2023-09-12T03:36:31;7.40;;;5.80;;
77775;SDS011;66965;43.328;6.668;2023-09-12T03:38:56;7.50;;;5.70;;
77775;SDS011;66965;43.328;6.668;2023-09-12T03:41:22;8.47;;;5.77;;
77775;SDS011;66965;43.328;6.668;2023-09-12T03:43:50;7.53;;;5.75;;
77775;SDS011;66965;43.328;6.668;2023-09-12T03:46:15;8.13;;;5.47;;
77775;SDS011;66965;43.328;6.668;2023-09-12T03:48:41;7.03;;;5.70;;
77775;SDS011;66965;43.328;6.668;2023-09-12T03:51:06;7.20;;;5.50;;
77775;SDS011;66965;43.328;6.668;2023-09-12T03:53:31;9.13;;;6.67;;
77775;SDS011;66965;43.328;6.668;2023-09-12T03:55:57;8.43;;;5.93;;
77775;SDS011;66965;43.328;6.668;2023-09-12T03:58:22;7.32;;;6.15;;
77775;SDS011;66965;43.328;6.668;2023-09-12T04:00:48;9.37;;;5.40;;
77775;SDS011;66965;43.328;6.668;2023-09-12T04:03:13;7.63;;;5.77;;
77775;SDS011;66965;43.328;6.668;2023-09-12T04:05:38;8.17;;;6.47;;
77775;SDS011;66965;43.328;6.668;2023-09-12T04:08:03;8.27;;;5.93;;
77775;SDS011;66965;43.328;6.668;2023-09-12T04:10:29;7.80;;;5.80;;
77775;SDS011;66965;43.328;6.668;2023-09-12T04:12:54;10.00;;;5.80;;
77775;SDS011;66965;43.328;6.668;2023-09-12T04:15:19;7.57;;;5.73;;
77775;SDS011;66965;43.328;6.668;2023-09-12T04:17:45;9.83;;;6.23;;
77775;SDS011;66965;43.328;6.668;2023-09-12T04:20:10;7.40;;;6.43;;
77775;SDS011;66965;43.328;6.668;2023-09-12T04:22:39;7.60;;;5.50;;
77775;SDS011;66965;43.328;6.668;2023-09-12T04:25:04;7.05;;;5.60;;
77775;SDS011;66965;43.328;6.668;2023-09-12T04:27:29;9.60;;;6.20;;
77775;SDS011;66965;43.328;6.668;2023-09-12T04:29:55;10.00;;;6.47;;
77775;SDS011;66965;43.328;6.668;2023-09-12T04:32:20;8.53;;;6.03;;
77775;SDS011;66965;43.328;6.668;2023-09-12T04:34:48;7.57;;;5.97;;
77775;SDS011;66965;43.328;6.668;2023-09-12T04:37:13;8.55;;;6.13;;
77775;SDS011;66965;43.328;6.668;2023-09-12T04:39:39;15.83;;;5.97;;
77775;SDS011;66965;43.328;6.668;2023-09-12T04:42:04;51.33;;;10.30;;
77775;SDS011;66965;43.328;6.668;2023-09-12T04:44:34;19.52;;;7.32;;
77775;SDS011;66965;43.328;6.668;2023-09-12T04:46:59;9.05;;;6.07;;
77775;SDS011;66965;43.328;6.668;2023-09-12T04:49:24;11.47;;;6.07;;
77775;SDS011;66965;43.328;6.668;2023-09-12T04:51:49;7.75;;;5.60;;
77775;SDS011;66965;43.328;6.668;2023-09-12T04:54:15;7.23;;;4.87;;
77775;SDS011;66965;43.328;6.668;2023-09-12T04:56:40;8.00;;;5.90;;
77775;SDS011;66965;43.328;6.668;2023-09-12T04:59:05;26.33;;;7.37;;
77775;SDS011;66965;43.328;6.668;2023-09-12T05:01:31;12.27;;;6.35;;
77775;SDS011;66965;43.328;6.668;2023-09-12T05:03:57;13.02;;;6.05;;
77775;SDS011;66965;43.328;6.668;2023-09-12T05:06:22;10.27;;;6.37;;
77775;SDS011;66965;43.328;6.668;2023-09-12T05:08:47;8.53;;;5.93;;
77775;SDS011;66965;43.328;6.668;2023-09-12T05:11:13;8.30;;;6.90;;
77775;SDS011;66965;43.328;6.668;2023-09-12T05:13:38;7.70;;;5.83;;
77775;SDS011;66965;43.328;6.668;2023-09-12T05:16:03;10.70;;;6.37;;
77775;SDS011;66965;43.328;6.668;2023-09-12T05:18:29;8.25;;;6.78;;
77775;SDS011;66965;43.328;6.668;2023-09-12T05:20:54;8.90;;;6.67;;
77775;SDS011;66965;43.328;6.668;2023-09-12T05:23:19;12.93;;;6.47;;
77775;SDS011;66965;43.328;6.668;2023-09-12T05:25:44;12.13;;;6.83;;
77775;SDS011;66965;43.328;6.668;2023-09-12T05:28:10;15.40;;;6.80;;
77775;SDS011;66965;43.328;6.668;2023-09-12T05:30:35;8.32;;;6.28;;
77775;SDS011;66965;43.328;6.668;2023-09-12T05:33:00;13.10;;;7.10;;
77775;SDS011;66965;43.328;6.668;2023-09-12T05:35:26;10.25;;;6.88;;
77775;SDS011;66965;43.328;6.668;2023-09-12T05:37:51;23.80;;;6.67;;
77775;SDS011;66965;43.328;6.668;2023-09-12T05:40:17;19.97;;;6.97;;
77775;SDS011;66965;43.328;6.668;2023-09-12T05:42:42;10.73;;;7.45;;
77775;SDS011;66965;43.328;6.668;2023-09-12T05:45:08;11.60;;;6.73;;
77775;SDS011;66965;43.328;6.668;2023-09-12T05:47:33;10.70;;;6.65;;
77775;SDS011;66965;43.328;6.668;2023-09-12T05:49:58;9.57;;;6.50;;
77775;SDS011;66965;43.328;6.668;2023-09-12T05:52:30;12.35;;;6.50;;
77775;SDS011;66965;43.328;6.668;2023-09-12T05:54:55;13.70;;;6.57;;
77775;SDS011;66965;43.328;6.668;2023-09-12T05:57:21;9.53;;;7.23;;
77775;SDS011;66965;43.328;6.668;2023-09-12T05:59:46;9.60;;;6.53;;
77775;SDS011;66965;43.328;6.668;2023-09-12T06:02:11;9.53;;;6.87;;
77775;SDS011;66965;43.328;6.668;2023-09-12T06:04:37;12.25;;;5.70;;
77775;SDS011;66965;43.328;6.668;2023-09-12T06:07:02;13.60;;;6.33;;
77775;SDS011;66965;43.328;6.668;2023-09-12T06:09:28;8.70;;;6.72;;
77775;SDS011;66965;43.328;6.668;2023-09-12T06:11:53;12.55;;;6.05;;
77775;SDS011;66965;43.328;6.668;2023-09-12T06:14:19;8.23;;;5.63;;
77775;SDS011;66965;43.328;6.668;2023-09-12T06:16:44;8.43;;;6.17;;
77775;SDS011;66965;43.328;6.668;2023-09-12T06:19:09;8.23;;;5.90;;
77775;SDS011;66965;43.328;6.668;2023-09-12T06:21:34;7.53;;;4.43;;
77775;SDS011;66965;43.328;6.668;2023-09-12T06:26:35;9.88;;;6.53;;
77775;SDS011;66965;43.328;6.668;2023-09-12T06:29:01;8.83;;;5.90;;
77775;SDS011;66965;43.328;6.668;2023-09-12T06:31:27;9.68;;;6.07;;
77775;SDS011;66965;43.328;6.668;2023-09-12T06:33:52;9.83;;;5.33;;
77775;SDS011;66965;43.328;6.668;2023-09-12T06:36:18;13.13;;;5.50;;
77775;SDS011;66965;43.328;6.668;2023-09-12T06:38:43;9.23;;;5.20;;
77775;SDS011;66965;43.328;6.668;2023-09-12T06:41:08;11.43;;;5.77;;
77775;SDS011;66965;43.328;6.668;2023-09-12T06:43:33;8.20;;;6.53;;
77775;SDS011;66965;43.328;6.668;2023-09-12T06:45:59;10.00;;;5.87;;
77775;SDS011;66965;43.328;6.668;2023-09-12T06:48:24;9.27;;;6.00;;
77775;SDS011;66965;43.328;6.668;2023-09-12T06:50:49;9.30;;;6.50;;
77775;SDS011;66965;43.328;6.668;2023-09-12T06:53:15;7.63;;;5.85;;
77775;SDS011;66965;43.328;6.668;2023-09-12T06:55:40;9.47;;;5.73;;
77775;SDS011;66965;43.328;6.668;2023-09-12T06:58:06;9.93;;;6.70;;
77775;SDS011;66965;43.328;6.668;2023-09-12T07:00:31;8.50;;;6.70;;
77775;SDS011;66965;43.328;6.668;2023-09-12T07:02:56;7.87;;;6.13;;
77775;SDS011;66965;43.328;6.668;2023-09-12T07:05:21;8.07;;;6.40;;
77775;SDS011;66965;43.328;6.668;2023-09-12T07:07:47;8.93;;;6.03;;
77775;SDS011;66965;43.328;6.668;2023-09-12T07:10:12;11.53;;;6.37;;
77775;SDS011;66965;43.328;6.668;2023-09-12T07:12:37;10.03;;;6.57;;
77775;SDS011;66965;43.328;6.668;2023-09-12T07:15:03;7.07;;;5.80;;
77775;SDS011;66965;43.328;6.668;2023-09-12T07:17:28;7.22;;;5.95;;
77775;SDS011;66965;43.328;6.668;2023-09-12T07:19:53;11.17;;;6.83;;
77775;SDS011;66965;43.328;6.668;2023-09-12T07:22:19;8.50;;;6.03;;
77775;SDS011;66965;43.328;6.668;2023-09-12T07:24:44;9.53;;;6.30;;
77775;SDS011;66965;43.328;6.668;2023-09-12T07:27:09;8.63;;;5.47;;
77775;SDS011;66965;43.328;6.668;2023-09-12T07:29:34;9.70;;;6.37;;
77775;SDS011;66965;43.328;6.668;2023-09-12T07:32:00;9.90;;;6.97;;
77775;SDS011;66965;43.328;6.668;2023-09-12T07:34:25;8.90;;;6.20;;
77775;SDS011;66965;43.328;6.668;2023-09-12T07:36:50;8.60;;;6.03;;
77775;SDS011;66965;43.328;6.668;2023-09-12T07:39:19;9.05;;;6.05;;
77775;SDS011;66965;43.328;6.668;2023-09-12T07:41:44;9.53;;;6.53;;
77775;SDS011;66965;43.328;6.668;2023-09-12T07:44:09;8.97;;;6.80;;
77775;SDS011;66965;43.328;6.668;2023-09-12T07:46:40;9.85;;;6.10;;
77775;SDS011;66965;43.328;6.668;2023-09-12T07:49:05;8.38;;;6.57;;
77775;SDS011;66965;43.328;6.668;2023-09-12T07:51:33;9.98;;;7.03;;
77775;SDS011;66965;43.328;6.668;2023-09-12T07:53:58;7.47;;;6.10;;
77775;SDS011;66965;43.328;6.668;2023-09-12T07:56:23;9.17;;;5.77;;
77775;SDS011;66965;43.328;6.668;2023-09-12T07:58:49;7.50;;;5.53;;
77775;SDS011;66965;43.328;6.668;2023-09-12T08:01:14;9.07;;;6.00;;
77775;SDS011;66965;43.328;6.668;2023-09-12T08:03:41;7.60;;;5.67;;
77775;SDS011;66965;43.328;6.668;2023-09-12T08:06:07;15.35;;;7.38;;
77775;SDS011;66965;43.328;6.668;2023-09-12T08:10:57;10.50;;;6.82;;
77775;SDS011;66965;43.328;6.668;2023-09-12T08:15:48;9.67;;;6.60;;
77775;SDS011;66965;43.328;6.668;2023-09-12T08:18:13;8.27;;;6.97;;
77775;SDS011;66965;43.328;6.668;2023-09-12T08:20:38;10.75;;;6.70;;
77775;SDS011;66965;43.328;6.668;2023-09-12T08:25:29;12.70;;;7.00;;
77775;SDS011;66965;43.328;6.668;2023-09-12T08:30:19;7.35;;;6.40;;
77775;SDS011;66965;43.328;6.668;2023-09-12T08:35:10;8.07;;;6.80;;
77775;SDS011;66965;43.328;6.668;2023-09-12T08:37:37;10.43;;;6.85;;
77775;SDS011;66965;43.328;6.668;2023-09-12T08:42:32;12.00;;;7.70;;
77775;SDS011;66965;43.328;6.668;2023-09-12T08:47:23;10.32;;;7.00;;
77775;SDS011;66965;43.328;6.668;2023-09-12T08:49:50;9.32;;;7.15;;
77775;SDS011;66965;43.328;6.668;2023-09-12T08:54:40;8.35;;;6.75;;
77775;SDS011;66965;43.328;6.668;2023-09-12T08:57:06;8.90;;;7.10;;
77775;SDS011;66965;43.328;6.668;2023-09-12T08:59:33;8.75;;;6.72;;
77775;SDS011;66965;43.328;6.668;2023-09-12T09:01:59;10.05;;;6.55;;
77775;SDS011;66965;43.328;6.668;2023-09-12T09:04:25;7.75;;;6.13;;
77775;SDS011;66965;43.328;6.668;2023-09-12T09:06:53;9.13;;;6.40;;
77775;SDS011;66965;43.328;6.668;2023-09-12T09:09:19;9.35;;;6.25;;
77775;SDS011;66965;43.328;6.668;2023-09-12T09:11:45;8.10;;;6.53;;
77775;SDS011;66965;43.328;6.668;2023-09-12T09:14:11;8.43;;;6.13;;
77775;SDS011;66965;43.328;6.668;2023-09-12T09:16:36;10.80;;;6.90;;
77775;SDS011;66965;43.328;6.668;2023-09-12T09:19:03;11.10;;;6.93;;
77775;SDS011;66965;43.328;6.668;2023-09-12T09:21:35;10.48;;;7.80;;
77775;SDS011;66965;43.328;6.668;2023-09-12T09:26:25;11.80;;;7.43;;
77775;SDS011;66965;43.328;6.668;2023-09-12T09:29:06;9.50;;;8.32;;
77775;SDS011;66965;43.328;6.668;2023-09-12T09:31:31;18.52;;;8.35;;
77775;SDS011;66965;43.328;6.668;2023-09-12T09:36:22;12.45;;;7.72;;
77775;SDS011;66965;43.328;6.668;2023-09-12T09:38:47;10.27;;;7.60;;
77775;SDS011;66965;43.328;6.668;2023-09-12T09:43:38;8.70;;;6.70;;
77775;SDS011;66965;43.328;6.668;2023-09-12T09:46:03;10.83;;;7.93;;
77775;SDS011;66965;43.328;6.668;2023-09-12T09:48:28;10.20;;;7.30;;
77775;SDS011;66965;43.328;6.668;2023-09-12T09:51:00;9.18;;;7.07;;
77775;SDS011;66965;43.328;6.668;2023-09-12T09:53:26;9.45;;;6.90;;
77775;SDS011;66965;43.328;6.668;2023-09-12T09:55:51;10.07;;;6.97;;
77775;SDS011;66965;43.328;6.668;2023-09-12T09:58:16;9.37;;;7.63;;
77775;SDS011;66965;43.328;6.668;2023-09-12T10:00:42;7.88;;;7.05;;
77775;SDS011;66965;43.328;6.668;2023-09-12T10:03:07;9.43;;;7.72;;
77775;SDS011;66965;43.328;6.668;2023-09-12T10:05:33;10.82;;;7.13;;
77775;SDS011;66965;43.328;6.668;2023-09-12T10:08:02;8.90;;;6.90;;
77775;SDS011;66965;43.328;6.668;2023-09-12T10:10:28;9.27;;;7.18;;
77775;SDS011;66965;43.328;6.668;2023-09-12T10:12:58;9.18;;;7.40;;
77775;SDS011;66965;43.328;6.668;2023-09-12T10:15:25;8.60;;;7.40;;
77775;SDS011;66965;43.328;6.668;2023-09-12T10:17:59;12.00;;;7.20;;
77775;SDS011;66965;43.328;6.668;2023-09-12T10:20:25;8.40;;;6.88;;
77775;SDS011;66965;43.328;6.668;2023-09-12T10:22:59;8.30;;;6.97;;
77775;SDS011;66965;43.328;6.668;2023-09-12T10:25:25;10.25;;;7.25;;
77775;SDS011;66965;43.328;6.668;2023-09-12T10:27:51;9.00;;;7.50;;
77775;SDS011;66965;43.328;6.668;2023-09-12T10:30:17;7.75;;;6.65;;
77775;SDS011;66965;43.328;6.668;2023-09-12T10:32:44;10.60;;;6.78;;
77775;SDS011;66965;43.328;6.668;2023-09-12T10:35:10;8.45;;;6.65;;
77775;SDS011;66965;43.328;6.668;2023-09-12T10:37:35;10.90;;;7.20;;
77775;SDS011;66965;43.328;6.668;2023-09-12T10:40:03;8.88;;;7.78;;
77775;SDS011;66965;43.328;6.668;2023-09-12T10:42:31;9.30;;;7.43;;
77775;SDS011;66965;43.328;6.668;2023-09-12T10:44:57;8.13;;;6.88;;
77775;SDS011;66965;43.328;6.668;2023-09-12T10:47:24;11.65;;;7.88;;
77775;SDS011;66965;43.328;6.668;2023-09-12T10:49:49;7.83;;;7.03;;
77775;SDS011;66965;43.328;6.668;2023-09-12T10:52:25;8.38;;;5.82;;
77775;SDS011;66965;43.328;6.668;2023-09-12T10:54:51;8.40;;;5.75;;
77775;SDS011;66965;43.328;6.668;2023-09-12T10:57:16;7.37;;;5.50;;
77775;SDS011;66965;43.328;6.668;2023-09-12T11:02:31;7.22;;;6.05;;
77775;SDS011;66965;43.328;6.668;2023-09-12T11:04:57;10.13;;;6.22;;
77775;SDS011;66965;43.328;6.668;2023-09-12T11:07:44;9.45;;;6.95;;
77775;SDS011;66965;43.328;6.668;2023-09-12T11:12:40;6.38;;;5.68;;
77775;SDS011;66965;43.328;6.668;2023-09-12T11:15:06;6.25;;;5.28;;
77775;SDS011;66965;43.328;6.668;2023-09-12T11:17:41;8.05;;;5.85;;
77775;SDS011;66965;43.328;6.668;2023-09-12T11:20:07;7.78;;;5.50;;
77775;SDS011;66965;43.328;6.668;2023-09-12T11:22:36;7.50;;;5.88;;
77775;SDS011;66965;43.328;6.668;2023-09-12T11:25:02;10.20;;;5.35;;
77775;SDS011;66965;43.328;6.668;2023-09-12T11:27:31;6.28;;;5.40;;
77775;SDS011;66965;43.328;6.668;2023-09-12T11:30:03;8.98;;;5.50;;
77775;SDS011;66965;43.328;6.668;2023-09-12T11:32:32;5.95;;;4.93;;
77775;SDS011;66965;43.328;6.668;2023-09-12T11:34:58;7.43;;;5.13;;
77775;SDS011;66965;43.328;6.668;2023-09-12T11:37:25;7.32;;;4.70;;
77775;SDS011;66965;43.328;6.668;2023-09-12T11:39:50;6.57;;;5.05;;
77775;SDS011;66965;43.328;6.668;2023-09-12T11:42:17;6.40;;;4.90;;
77775;SDS011;66965;43.328;6.668;2023-09-12T11:44:43;6.70;;;5.15;;
77775;SDS011;66965;43.328;6.668;2023-09-12T11:47:09;6.70;;;5.10;;
77775;SDS011;66965;43.328;6.668;2023-09-12T11:49:36;6.97;;;4.93;;
77775;SDS011;66965;43.328;6.668;2023-09-12T11:52:02;7.15;;;5.18;;
77775;SDS011;66965;43.328;6.668;2023-09-12T11:54:28;7.55;;;5.85;;
77775;SDS011;66965;43.328;6.668;2023-09-12T11:56:54;9.80;;;5.95;;
77775;SDS011;66965;43.328;6.668;2023-09-12T11:59:24;6.60;;;5.35;;
77775;SDS011;66965;43.328;6.668;2023-09-12T12:01:50;7.28;;;5.25;;
77775;SDS011;66965;43.328;6.668;2023-09-12T12:04:15;6.27;;;5.40;;
77775;SDS011;66965;43.328;6.668;2023-09-12T12:09:06;6.28;;;5.10;;
77775;SDS011;66965;43.328;6.668;2023-09-12T12:11:31;6.90;;;5.00;;
77775;SDS011;66965;43.328;6.668;2023-09-12T12:13:57;6.95;;;5.80;;
77775;SDS011;66965;43.328;6.668;2023-09-12T12:16:24;6.70;;;4.67;;
77775;SDS011;66965;43.328;6.668;2023-09-12T12:18:50;7.63;;;4.80;;
77775;SDS011;66965;43.328;6.668;2023-09-12T12:21:19;5.80;;;4.82;;
77775;SDS011;66965;43.328;6.668;2023-09-12T12:23:44;8.65;;;5.13;;
77775;SDS011;66965;43.328;6.668;2023-09-12T12:26:10;8.27;;;5.80;;
77775;SDS011;66965;43.328;6.668;2023-09-12T12:28:35;7.55;;;5.55;;
77775;SDS011;66965;43.328;6.668;2023-09-12T12:31:01;7.47;;;4.83;;
77775;SDS011;66965;43.328;6.668;2023-09-12T12:33:26;9.32;;;5.90;;
77775;SDS011;66965;43.328;6.668;2023-09-12T12:38:17;6.85;;;5.53;;
77775;SDS011;66965;43.328;6.668;2023-09-12T12:40:42;6.97;;;5.40;;
77775;SDS011;66965;43.328;6.668;2023-09-12T12:43:17;8.67;;;5.97;;
77775;SDS011;66965;43.328;6.668;2023-09-12T12:45:54;7.80;;;5.20;;
77775;SDS011;66965;43.328;6.668;2023-09-12T12:48:28;7.05;;;4.68;;
77775;SDS011;66965;43.328;6.668;2023-09-12T12:50:54;6.85;;;4.97;;
77775;SDS011;66965;43.328;6.668;2023-09-12T12:53:36;6.90;;;4.50;;
77775;SDS011;66965;43.328;6.668;2023-09-12T12:56:01;6.80;;;5.60;;
77775;SDS011;66965;43.328;6.668;2023-09-12T12:58:27;6.75;;;5.05;;
77775;SDS011;66965;43.328;6.668;2023-09-12T13:03:17;7.25;;;4.35;;
77775;SDS011;66965;43.328;6.668;2023-09-12T13:05:43;4.73;;;3.27;;
77775;SDS011;66965;43.328;6.668;2023-09-12T13:08:08;6.23;;;3.37;;
77775;SDS011;66965;43.328;6.668;2023-09-12T13:12:58;7.60;;;3.97;;
77775;SDS011;66965;43.328;6.668;2023-09-12T13:15:24;7.13;;;4.70;;
77775;SDS011;66965;43.328;6.668;2023-09-12T13:20:14;9.00;;;5.22;;
77775;SDS011;66965;43.328;6.668;2023-09-12T13:25:05;7.45;;;5.18;;
77775;SDS011;66965;43.328;6.668;2023-09-12T13:27:31;12.15;;;5.90;;
77775;SDS011;66965;43.328;6.668;2023-09-12T13:29:56;6.53;;;5.33;;
77775;SDS011;66965;43.328;6.668;2023-09-12T13:32:21;8.57;;;5.90;;
77775;SDS011;66965;43.328;6.668;2023-09-12T13:34:47;7.90;;;5.33;;
77775;SDS011;66965;43.328;6.668;2023-09-12T13:37:12;8.23;;;6.13;;
77775;SDS011;66965;43.328;6.668;2023-09-12T13:39:37;11.13;;;6.20;;
77775;SDS011;66965;43.328;6.668;2023-09-12T13:42:03;30.37;;;7.30;;
77775;SDS011;66965;43.328;6.668;2023-09-12T13:44:30;8.48;;;6.47;;
77775;SDS011;66965;43.328;6.668;2023-09-12T13:46:55;13.10;;;6.80;;
77775;SDS011;66965;43.328;6.668;2023-09-12T13:49:21;7.97;;;6.17;;
77775;SDS011;66965;43.328;6.668;2023-09-12T13:51:46;6.97;;;6.00;;
77775;SDS011;66965;43.328;6.668;2023-09-12T13:54:11;9.13;;;6.63;;
77775;SDS011;66965;43.328;6.668;2023-09-12T13:56:42;12.00;;;5.68;;
77775;SDS011;66965;43.328;6.668;2023-09-12T13:59:07;8.55;;;6.00;;
77775;SDS011;66965;43.328;6.668;2023-09-12T14:01:32;7.00;;;6.07;;
77775;SDS011;66965;43.328;6.668;2023-09-12T14:03:58;8.50;;;6.40;;
77775;SDS011;66965;43.328;6.668;2023-09-12T14:06:23;9.93;;;7.40;;
77775;SDS011;66965;43.328;6.668;2023-09-12T14:08:48;8.23;;;6.60;;
77775;SDS011;66965;43.328;6.668;2023-09-12T14:11:14;9.47;;;6.67;;
77775;SDS011;66965;43.328;6.668;2023-09-12T14:13:39;10.10;;;6.53;;
77775;SDS011;66965;43.328;6.668;2023-09-12T14:16:04;9.00;;;6.57;;
77775;SDS011;66965;43.328;6.668;2023-09-12T14:18:29;8.93;;;6.23;;
77775;SDS011;66965;43.328;6.668;2023-09-12T14:20:55;10.57;;;6.50;;
77775;SDS011;66965;43.328;6.668;2023-09-12T14:23:20;9.00;;;7.00;;
77775;SDS011;66965;43.328;6.668;2023-09-12T14:25:46;9.70;;;7.18;;
77775;SDS011;66965;43.328;6.668;2023-09-12T14:28:11;9.37;;;6.73;;
77775;SDS011;66965;43.328;6.668;2023-09-12T14:30:36;10.53;;;8.17;;
77775;SDS011;66965;43.328;6.668;2023-09-12T14:33:03;8.75;;;6.65;;
77775;SDS011;66965;43.328;6.668;2023-09-12T14:35:28;8.73;;;6.10;;
77775;SDS011;66965;43.328;6.668;2023-09-12T14:37:54;9.13;;;6.40;;
77775;SDS011;66965;43.328;6.668;2023-09-12T14:40:19;12.07;;;7.50;;
77775;SDS011;66965;43.328;6.668;2023-09-12T14:42:44;9.93;;;5.57;;
77775;SDS011;66965;43.328;6.668;2023-09-12T14:45:10;7.30;;;5.07;;
77775;SDS011;66965;43.328;6.668;2023-09-12T14:50:00;11.07;;;5.23;;
77775;SDS011;66965;43.328;6.668;2023-09-12T14:54:52;9.95;;;4.93;;
77775;SDS011;66965;43.328;6.668;2023-09-12T14:59:44;6.38;;;4.63;;
77775;SDS011;66965;43.328;6.668;2023-09-12T15:04:34;7.20;;;4.38;;
77775;SDS011;66965;43.328;6.668;2023-09-12T15:09:25;7.80;;;4.45;;
77775;SDS011;66965;43.328;6.668;2023-09-12T15:14:15;7.90;;;4.20;;
77775;SDS011;66965;43.328;6.668;2023-09-12T15:19:06;7.13;;;4.05;;
77775;SDS011;66965;43.328;6.668;2023-09-12T15:21:31;6.13;;;4.53;;
77775;SDS011;66965;43.328;6.668;2023-09-12T15:26:21;6.57;;;3.80;;
77775;SDS011;66965;43.328;6.668;2023-09-12T15:28:47;7.90;;;4.27;;
77775;SDS011;66965;43.328;6.668;2023-09-12T15:31:12;9.87;;;4.47;;
77775;SDS011;66965;43.328;6.668;2023-09-12T15:36:02;7.45;;;4.40;;
77775;SDS011;66965;43.328;6.668;2023-09-12T15:38:28;8.17;;;4.73;;
77775;SDS011;66965;43.328;6.668;2023-09-12T15:40:53;7.30;;;4.57;;
77775;SDS011;66965;43.328;6.668;2023-09-12T15:43:19;5.88;;;3.72;;
77775;SDS011;66965;43.328;6.668;2023-09-12T15:48:10;6.07;;;4.43;;
77775;SDS011;66965;43.328;6.668;2023-09-12T15:53:01;6.72;;;4.60;;
77775;SDS011;66965;43.328;6.668;2023-09-12T15:55:26;8.20;;;4.87;;
77775;SDS011;66965;43.328;6.668;2023-09-12T16:00:17;6.30;;;4.20;;